createdAt,value
2019-05-20T00:00:42.738Z,8.70
2019-05-20T00:03:16.159Z,7.73
2019-05-20T00:05:49.697Z,9.10
2019-05-20T00:08:23.374Z,8.37
2019-05-20T00:10:56.815Z,10.63
2019-05-20T00:13:30.236Z,9.43
2019-05-20T00:16:03.663Z,9.03
2019-05-20T00:18:37.094Z,8.83
2019-05-20T00:21:10.789Z,10.17
2019-05-20T00:23:44.283Z,8.13
2019-05-20T00:26:17.718Z,10.57
2019-05-20T00:28:51.131Z,11.50
2019-05-20T00:31:24.589Z,10.07
2019-05-20T00:33:58.003Z,9.23
2019-05-20T00:36:31.431Z,10.80
2019-05-20T00:39:16.909Z,9.77
2019-05-20T00:41:50.612Z,10.20
2019-05-20T00:44:24.054Z,10.33
2019-05-20T00:46:57.633Z,11.00
2019-05-20T00:49:31.149Z,10.83
2019-05-20T00:52:04.617Z,11.27
2019-05-20T00:54:38.273Z,9.00
2019-05-20T00:57:11.772Z,12.40
2019-05-20T00:59:45.197Z,11.43
2019-05-20T01:02:18.995Z,8.87
2019-05-20T01:04:52.408Z,9.10
2019-05-20T01:07:25.991Z,9.53
2019-05-20T01:09:59.398Z,8.83
2019-05-20T01:12:32.827Z,8.63
2019-05-20T01:15:06.984Z,11.60
2019-05-20T01:17:40.412Z,9.23
2019-05-20T01:20:14.767Z,9.37
2019-05-20T01:22:48.196Z,10.67
2019-05-20T01:25:21.611Z,10.23
2019-05-20T01:27:55.056Z,8.57
2019-05-20T01:30:28.910Z,9.07
2019-05-20T01:33:13.251Z,10.17
2019-05-20T01:35:37.531Z,10.70
2019-05-20T01:38:10.959Z,9.37
2019-05-20T01:40:44.393Z,10.00
2019-05-20T01:43:17.835Z,9.33
2019-05-20T01:45:51.247Z,9.43
2019-05-20T01:48:24.678Z,10.90
2019-05-20T01:50:58.098Z,10.07
2019-05-20T01:53:31.528Z,8.73
2019-05-20T01:56:04.944Z,11.13
2019-05-20T01:58:39.762Z,12.63
2019-05-20T02:01:13.383Z,10.00
2019-05-20T02:03:46.827Z,9.67
2019-05-20T02:06:20.241Z,9.37
2019-05-20T02:08:53.679Z,10.03
2019-05-20T02:11:27.103Z,8.60
2019-05-20T02:14:04.847Z,9.67
2019-05-20T02:16:38.267Z,10.03
2019-05-20T02:19:11.712Z,9.73
2019-05-20T02:21:45.136Z,7.63
2019-05-20T02:24:18.568Z,10.33
2019-05-20T02:26:51.993Z,13.00
2019-05-20T02:29:25.435Z,14.27
2019-05-20T02:31:58.844Z,9.07
2019-05-20T02:34:32.281Z,8.40
2019-05-20T02:37:05.688Z,9.40
2019-05-20T02:39:39.201Z,20.80
2019-05-20T02:42:12.616Z,8.27
2019-05-20T02:44:46.049Z,10.83
2019-05-20T02:47:19.481Z,7.97
2019-05-20T02:49:52.901Z,10.67
2019-05-20T02:52:26.336Z,10.30
2019-05-20T02:54:59.753Z,10.33
2019-05-20T02:57:33.189Z,10.40
2019-05-20T03:00:08.033Z,9.30
2019-05-20T03:02:41.464Z,10.60
2019-05-20T03:05:14.877Z,9.50
2019-05-20T03:07:48.313Z,13.87
2019-05-20T03:10:21.804Z,12.93
2019-05-20T03:12:55.241Z,17.07
2019-05-20T03:15:28.661Z,10.70
2019-05-20T03:18:02.100Z,10.53
2019-05-20T03:20:35.582Z,13.30
2019-05-20T03:23:09.181Z,12.13
2019-05-20T03:25:43.056Z,9.97
2019-05-20T03:28:16.491Z,14.50
2019-05-20T03:30:50.089Z,10.77
2019-05-20T03:33:23.886Z,10.57
2019-05-20T03:35:57.338Z,9.67
2019-05-20T03:38:30.767Z,12.10
2019-05-20T03:41:04.262Z,12.77
2019-05-20T03:43:37.714Z,10.83
2019-05-20T03:46:11.139Z,10.33
2019-05-20T03:48:44.571Z,12.43
2019-05-20T03:51:17.992Z,10.13
2019-05-20T03:53:51.436Z,11.87
2019-05-20T03:56:24.858Z,11.40
2019-05-20T03:58:58.292Z,12.60
2019-05-20T04:01:31.719Z,11.70
2019-05-20T04:04:05.320Z,11.30
2019-05-20T04:06:38.736Z,15.07
2019-05-20T04:09:12.167Z,10.13
2019-05-20T04:11:45.611Z,13.00
2019-05-20T04:14:19.096Z,12.27
2019-05-20T04:16:52.520Z,15.90
2019-05-20T04:19:25.955Z,13.37
2019-05-20T04:21:59.374Z,12.80
2019-05-20T04:24:32.800Z,15.17
2019-05-20T04:27:06.231Z,12.67
2019-05-20T04:29:39.657Z,18.37
2019-05-20T04:32:13.077Z,15.90
2019-05-20T04:34:46.518Z,14.47
2019-05-20T04:37:19.933Z,13.60
2019-05-20T04:39:53.365Z,12.67
2019-05-20T04:42:26.792Z,12.30
2019-05-20T04:45:00.221Z,16.37
2019-05-20T04:47:33.720Z,12.60
2019-05-20T04:50:08.907Z,10.63
2019-05-20T04:52:42.381Z,11.03
2019-05-20T04:55:15.821Z,13.27
2019-05-20T04:57:49.241Z,13.03
2019-05-20T05:00:48.316Z,12.87
2019-05-20T05:03:22.408Z,13.70
2019-05-20T05:05:56.082Z,16.40
2019-05-20T05:08:29.583Z,12.80
2019-05-20T05:11:03.084Z,22.60
2019-05-20T05:13:36.510Z,23.60
2019-05-20T05:16:09.945Z,13.03
2019-05-20T05:18:43.356Z,16.93
2019-05-20T05:21:16.872Z,15.13
2019-05-20T05:23:58.699Z,14.13
2019-05-20T05:26:25.759Z,21.60
2019-05-20T05:28:59.167Z,16.93
2019-05-20T05:31:32.605Z,22.00
2019-05-20T05:34:06.036Z,17.03
2019-05-20T05:36:39.455Z,19.23
2019-05-20T05:39:12.955Z,17.57
2019-05-20T05:41:46.411Z,28.73
2019-05-20T05:44:20.026Z,18.07
2019-05-20T05:46:53.437Z,17.33
2019-05-20T05:49:26.871Z,14.37
2019-05-20T05:52:00.283Z,20.93
2019-05-20T05:54:33.724Z,25.10
2019-05-20T05:57:07.369Z,20.37
2019-05-20T05:59:40.800Z,18.27
2019-05-20T06:02:14.245Z,18.23
2019-05-20T06:04:47.675Z,11.20
2019-05-20T06:07:21.095Z,16.80
2019-05-20T06:09:54.536Z,11.83
2019-05-20T06:12:28.124Z,16.70
2019-05-20T06:15:01.552Z,12.87
2019-05-20T06:17:34.975Z,18.30
2019-05-20T06:20:09.744Z,14.90
2019-05-20T06:22:43.340Z,14.80
2019-05-20T06:25:17.312Z,14.23
2019-05-20T06:27:50.756Z,15.33
2019-05-20T06:30:36.209Z,12.53
2019-05-20T06:33:10.100Z,14.93
2019-05-20T06:35:43.763Z,9.73
2019-05-20T06:38:34.729Z,13.20
2019-05-20T06:41:08.680Z,20.97
2019-05-20T06:43:42.108Z,14.17
2019-05-20T06:46:15.547Z,15.00
2019-05-20T06:48:48.968Z,10.23
2019-05-20T06:51:22.408Z,15.50
2019-05-20T06:53:56.112Z,12.27
2019-05-20T06:56:29.570Z,10.60
2019-05-20T06:59:03.125Z,10.47
2019-05-20T07:01:36.665Z,9.27
2019-05-20T07:04:10.085Z,9.10
2019-05-20T07:06:47.214Z,12.00
2019-05-20T07:09:18.667Z,12.33
2019-05-20T07:11:53.282Z,8.07
2019-05-20T07:14:27.096Z,15.83
2019-05-20T07:17:00.532Z,14.33
2019-05-20T07:19:33.944Z,15.63
2019-05-20T07:22:07.386Z,10.20
2019-05-20T07:24:40.961Z,12.43
2019-05-20T07:27:14.392Z,8.13
2019-05-20T07:29:47.805Z,15.83
2019-05-20T07:32:21.264Z,9.20
2019-05-20T07:34:54.677Z,8.63
2019-05-20T07:37:28.200Z,7.50
2019-05-20T07:40:01.909Z,10.50
2019-05-20T07:42:35.527Z,9.37
2019-05-20T07:45:09.752Z,16.87
2019-05-20T07:47:43.526Z,19.17
2019-05-20T07:50:18.084Z,15.80
2019-05-20T07:52:51.520Z,13.63
2019-05-20T07:55:27.760Z,14.43
2019-05-20T07:58:04.431Z,8.50
2019-05-20T08:00:38.264Z,15.20
2019-05-20T08:03:11.901Z,9.83
2019-05-20T08:05:45.339Z,10.60
2019-05-20T08:08:18.843Z,13.50
2019-05-20T08:10:52.278Z,12.63
2019-05-20T08:13:25.798Z,10.60
2019-05-20T08:15:59.212Z,9.03
2019-05-20T08:18:32.757Z,10.57
2019-05-20T08:21:06.180Z,11.93
2019-05-20T08:23:39.606Z,9.90
2019-05-20T08:26:13.064Z,11.20
2019-05-20T08:28:46.550Z,10.93
2019-05-20T08:31:19.960Z,12.97
2019-05-20T08:33:53.410Z,10.67
2019-05-20T08:36:26.970Z,13.20
2019-05-20T08:39:00.460Z,16.10
2019-05-20T08:41:33.922Z,15.47
2019-05-20T08:44:07.393Z,18.43
2019-05-20T08:46:40.991Z,12.40
2019-05-20T08:49:14.479Z,13.73
2019-05-20T08:51:47.914Z,14.60
2019-05-20T08:54:21.349Z,11.53
2019-05-20T08:56:54.768Z,11.83
2019-05-20T08:59:28.240Z,13.00
2019-05-20T09:02:01.664Z,13.07
2019-05-20T09:04:35.088Z,12.57
2019-05-20T09:07:08.546Z,16.37
2019-05-20T09:09:41.980Z,13.00
2019-05-20T09:12:15.436Z,14.47
2019-05-20T09:14:48.861Z,14.73
2019-05-20T09:17:22.489Z,13.17
2019-05-20T09:19:55.912Z,12.83
2019-05-20T09:22:29.348Z,11.70
2019-05-20T09:25:03.244Z,11.73
2019-05-20T09:27:37.150Z,11.00
2019-05-20T09:30:12.813Z,13.53
2019-05-20T09:32:46.816Z,13.17
2019-05-20T09:35:20.619Z,14.37
2019-05-20T09:37:54.059Z,15.50
2019-05-20T09:40:58.092Z,18.47
2019-05-20T09:43:31.615Z,12.03
2019-05-20T09:46:07.947Z,17.73
2019-05-20T09:48:40.192Z,14.17
2019-05-20T09:51:13.692Z,16.50
2019-05-20T09:53:47.129Z,12.87
2019-05-20T09:56:20.557Z,16.93
2019-05-20T09:58:53.992Z,19.27
2019-05-20T10:01:27.417Z,17.07
2019-05-20T10:04:00.847Z,19.30
2019-05-20T10:06:34.347Z,19.17
2019-05-20T10:09:07.876Z,14.53
2019-05-20T10:11:41.372Z,14.60
2019-05-20T10:14:14.819Z,18.40
2019-05-20T10:16:48.252Z,19.53
2019-05-20T10:19:21.710Z,19.50
2019-05-20T10:21:55.119Z,16.60
2019-05-20T10:24:28.563Z,18.07
2019-05-20T10:27:01.987Z,16.50
2019-05-20T10:29:35.424Z,15.80
2019-05-20T10:32:08.845Z,16.70
2019-05-20T10:34:42.276Z,13.20
2019-05-20T10:37:15.703Z,13.70
2019-05-20T10:39:49.175Z,14.33
2019-05-20T10:42:22.607Z,14.47
2019-05-20T10:44:56.115Z,17.57
2019-05-20T10:47:29.548Z,16.97
2019-05-20T10:50:03.625Z,16.37
2019-05-20T10:52:37.048Z,16.40
2019-05-20T10:55:11.700Z,17.70
2019-05-20T10:57:45.122Z,17.77
2019-05-20T11:00:19.293Z,18.63
2019-05-20T11:02:52.791Z,12.83
2019-05-20T11:05:26.236Z,14.27
2019-05-20T11:07:59.659Z,10.73
2019-05-20T11:10:33.168Z,19.10
2019-05-20T11:13:06.601Z,14.43
2019-05-20T11:15:40.251Z,13.97
2019-05-20T11:18:13.682Z,15.60
2019-05-20T11:20:47.108Z,15.23
2019-05-20T11:23:20.536Z,15.33
2019-05-20T11:25:53.971Z,15.47
2019-05-20T11:28:27.411Z,12.00
2019-05-20T11:31:00.840Z,19.03
2019-05-20T11:33:34.278Z,10.70
2019-05-20T11:36:07.699Z,9.43
2019-05-20T11:38:41.120Z,10.30
2019-05-20T11:41:14.552Z,12.73
2019-05-20T11:43:47.994Z,11.07
2019-05-20T11:46:21.498Z,16.97
2019-05-20T11:48:55.012Z,10.10
2019-05-20T11:51:28.494Z,10.47
2019-05-20T11:54:02.032Z,10.40
2019-05-20T11:56:35.468Z,12.93
2019-05-20T11:59:09.247Z,12.23
2019-05-20T12:01:42.728Z,9.30
2019-05-20T12:04:16.200Z,10.93
2019-05-20T12:06:49.622Z,10.57
2019-05-20T12:09:23.076Z,12.03
2019-05-20T12:11:56.631Z,11.60
2019-05-20T12:14:30.140Z,10.70
2019-05-20T12:17:03.626Z,13.30
2019-05-20T12:19:37.056Z,10.27
2019-05-20T12:22:10.498Z,10.03
2019-05-20T12:24:44.003Z,9.73
2019-05-20T12:27:17.425Z,10.67
2019-05-20T12:29:50.875Z,11.90
2019-05-20T12:32:24.303Z,13.77
2019-05-20T12:34:57.735Z,11.87
2019-05-20T12:37:31.230Z,12.77
2019-05-20T12:40:08.085Z,11.20
2019-05-20T12:42:41.717Z,10.93
2019-05-20T12:45:15.495Z,11.23
2019-05-20T12:47:48.916Z,10.87
2019-05-20T12:50:23.512Z,12.03
2019-05-20T12:52:56.943Z,10.10
2019-05-20T12:55:30.391Z,16.07
2019-05-20T12:58:03.874Z,13.67
2019-05-20T13:00:37.574Z,14.30
2019-05-20T13:03:11.015Z,14.23
2019-05-20T13:05:44.518Z,14.23
2019-05-20T13:08:18.045Z,14.60
2019-05-20T13:10:51.491Z,14.57
2019-05-20T13:13:24.993Z,13.60
2019-05-20T13:15:58.441Z,14.80
2019-05-20T13:18:31.859Z,12.57
2019-05-20T13:21:05.363Z,12.47
2019-05-20T13:23:38.828Z,13.50
2019-05-20T13:26:12.260Z,14.23
2019-05-20T13:28:45.686Z,16.50
2019-05-20T13:31:19.129Z,17.77
2019-05-20T13:33:52.549Z,16.20
2019-05-20T13:36:25.980Z,14.43
2019-05-20T13:38:59.409Z,15.77
2019-05-20T13:41:32.844Z,16.70
2019-05-20T13:44:06.276Z,17.20
2019-05-20T13:46:39.708Z,17.87
2019-05-20T13:49:13.136Z,23.40
2019-05-20T13:51:46.571Z,16.83
2019-05-20T13:54:20.015Z,20.13
2019-05-20T13:56:53.469Z,22.50
2019-05-20T13:59:26.876Z,18.57
2019-05-20T14:02:00.332Z,18.50
2019-05-20T14:04:33.744Z,23.33
2019-05-20T14:07:07.277Z,20.93
2019-05-20T14:09:40.731Z,27.90
2019-05-20T14:12:14.239Z,23.30
2019-05-20T14:14:47.673Z,19.50
2019-05-20T14:17:21.144Z,23.20
2019-05-20T14:19:54.576Z,16.93
2019-05-20T14:22:28.077Z,13.70
2019-05-20T14:25:01.512Z,13.27
2019-05-20T14:27:34.947Z,11.50
2019-05-20T14:30:09.919Z,9.63
2019-05-20T14:32:43.333Z,9.93
2019-05-20T14:35:16.766Z,11.33
2019-05-20T14:37:50.193Z,8.77
2019-05-20T14:40:23.800Z,6.43
2019-05-20T14:42:57.220Z,10.90
2019-05-20T14:45:30.696Z,10.67
2019-05-20T14:48:04.241Z,19.43
2019-05-20T14:50:37.712Z,10.53
2019-05-20T14:53:11.136Z,12.57
2019-05-20T14:55:44.577Z,14.20
2019-05-20T14:58:18.004Z,15.50
2019-05-20T15:00:51.447Z,20.93
2019-05-20T15:03:25.827Z,18.63
2019-05-20T15:05:59.329Z,21.03
2019-05-20T15:08:34.472Z,20.80
2019-05-20T15:11:07.972Z,21.10
2019-05-20T15:13:41.412Z,22.60
2019-05-20T15:16:14.851Z,20.50
2019-05-20T15:18:48.286Z,21.03
2019-05-20T15:21:21.747Z,20.83
2019-05-20T15:23:55.262Z,15.20
2019-05-20T15:26:28.750Z,13.33
2019-05-20T15:29:03.290Z,12.60
2019-05-20T15:31:37.396Z,14.37
2019-05-20T15:34:10.815Z,15.50
2019-05-20T15:36:44.353Z,16.73
2019-05-20T15:39:18.160Z,16.77
2019-05-20T15:41:51.588Z,10.50
2019-05-20T15:44:25.019Z,11.17
2019-05-20T15:46:58.449Z,8.80
2019-05-20T15:49:31.868Z,6.87
2019-05-20T15:52:05.307Z,7.20
2019-05-20T15:54:38.781Z,8.17
2019-05-20T15:57:12.212Z,8.33
2019-05-20T15:59:46.755Z,10.37
2019-05-20T16:02:20.535Z,6.70
2019-05-20T16:04:53.952Z,6.20
2019-05-20T16:07:27.381Z,6.90
2019-05-20T16:10:00.802Z,7.27
2019-05-20T16:12:34.519Z,7.23
2019-05-20T16:15:08.759Z,9.57
2019-05-20T16:17:42.192Z,9.03
2019-05-20T16:20:16.213Z,11.17
2019-05-20T16:22:49.650Z,6.53
2019-05-20T16:25:23.150Z,8.50
2019-05-20T16:27:56.580Z,12.40
2019-05-20T16:30:30.023Z,6.63
2019-05-20T16:33:03.458Z,10.83
2019-05-20T16:35:36.881Z,7.40
2019-05-20T16:38:10.316Z,6.17
2019-05-20T16:40:43.908Z,7.57
2019-05-20T16:43:17.368Z,6.83
2019-05-20T16:45:50.860Z,7.43
2019-05-20T16:48:24.452Z,7.07
2019-05-20T16:50:57.874Z,9.53
2019-05-20T16:53:31.304Z,8.03
2019-05-20T16:56:04.728Z,7.90
2019-05-20T16:58:38.151Z,7.97
2019-05-20T17:01:11.576Z,9.53
2019-05-20T17:03:45.026Z,10.53
2019-05-20T17:06:18.439Z,10.23
2019-05-20T17:08:51.867Z,10.40
2019-05-20T17:11:25.341Z,10.23
2019-05-20T17:13:58.818Z,11.10
2019-05-20T17:16:32.231Z,10.53
2019-05-20T17:19:05.675Z,12.80
2019-05-20T17:21:39.095Z,11.90
2019-05-20T17:24:12.547Z,11.90
2019-05-20T17:26:45.973Z,11.50
2019-05-20T17:29:19.404Z,10.67
2019-05-20T17:31:52.827Z,10.07
2019-05-20T17:34:26.265Z,10.13
2019-05-20T17:36:59.700Z,10.03
2019-05-20T17:39:33.147Z,11.10
2019-05-20T17:42:06.964Z,10.60
2019-05-20T17:44:40.572Z,12.23
2019-05-20T17:47:13.990Z,13.50
2019-05-20T17:49:47.495Z,16.77
2019-05-20T17:52:20.920Z,17.10
2019-05-20T17:54:54.356Z,18.40
2019-05-20T17:57:27.869Z,15.70
2019-05-20T18:00:01.531Z,14.93
2019-05-20T18:02:35.032Z,16.70
2019-05-20T18:05:09.607Z,16.37
2019-05-20T18:07:43.199Z,19.47
2019-05-20T18:10:18.926Z,16.63
2019-05-20T18:12:52.357Z,13.47
2019-05-20T18:15:25.780Z,14.40
2019-05-20T18:17:59.244Z,14.37
2019-05-20T18:20:32.671Z,15.37
2019-05-20T18:23:06.095Z,15.03
2019-05-20T18:25:39.533Z,16.47
2019-05-20T18:28:13.015Z,14.80
2019-05-20T18:30:46.555Z,13.47
2019-05-20T18:33:19.997Z,11.87
2019-05-20T18:35:53.484Z,11.87
2019-05-20T18:38:26.917Z,15.40
2019-05-20T18:41:00.343Z,15.40
2019-05-20T18:43:33.789Z,15.47
2019-05-20T18:46:07.209Z,14.80
2019-05-20T18:48:40.645Z,17.10
2019-05-20T18:51:14.076Z,15.87
2019-05-20T18:53:47.778Z,18.67
2019-05-20T18:56:21.204Z,20.00
2019-05-20T18:58:54.649Z,19.30
2019-05-20T19:01:28.348Z,22.67
2019-05-20T19:04:01.804Z,24.97
2019-05-20T19:06:35.300Z,26.77
2019-05-20T19:09:09.312Z,27.40
2019-05-20T19:11:42.735Z,33.10
2019-05-20T19:14:16.203Z,27.97
2019-05-20T19:16:49.620Z,30.60
2019-05-20T19:19:23.503Z,29.67
2019-05-20T19:21:57.377Z,31.17
2019-05-20T19:24:30.827Z,33.23
2019-05-20T19:27:05.434Z,31.33
2019-05-20T19:29:38.935Z,33.50
2019-05-20T19:32:14.213Z,32.40
2019-05-20T19:34:47.666Z,32.97
2019-05-20T19:37:21.160Z,35.60
2019-05-20T19:39:54.595Z,31.67
2019-05-20T19:42:28.016Z,27.70
2019-05-20T19:45:01.458Z,24.73
2019-05-20T19:47:34.876Z,25.33
2019-05-20T19:50:09.125Z,32.43
2019-05-20T19:52:42.769Z,26.40
2019-05-20T19:55:18.779Z,25.10
2019-05-20T19:57:51.508Z,26.17
2019-05-20T20:00:24.949Z,30.03
2019-05-20T20:02:58.375Z,30.57
2019-05-20T20:05:31.803Z,30.47
2019-05-20T20:08:05.595Z,32.93
2019-05-20T20:10:39.031Z,28.47
2019-05-20T20:13:12.460Z,29.63
2019-05-20T20:15:45.910Z,28.27
2019-05-20T20:18:19.392Z,31.60
2019-05-20T20:20:52.840Z,27.07
2019-05-20T20:23:26.262Z,25.80
2019-05-20T20:25:59.697Z,25.73
2019-05-20T20:28:33.124Z,23.30
2019-05-20T20:31:06.552Z,24.63
2019-05-20T20:33:40.648Z,22.30
2019-05-20T20:36:14.087Z,22.27
2019-05-20T20:38:47.511Z,21.50
2019-05-20T20:41:20.944Z,20.40
2019-05-20T20:43:54.384Z,22.53
2019-05-20T20:46:27.821Z,21.27
2019-05-20T20:49:01.253Z,20.53
2019-05-20T20:51:34.718Z,21.00
2019-05-20T20:54:08.194Z,23.27
2019-05-20T20:56:41.624Z,24.00
2019-05-20T20:59:15.045Z,20.70
2019-05-20T21:01:48.475Z,20.90
2019-05-20T21:04:21.900Z,22.83
2019-05-20T21:06:55.348Z,21.30
2019-05-20T21:09:28.792Z,23.53
2019-05-20T21:12:02.500Z,25.57
2019-05-20T21:14:36.198Z,22.70
2019-05-20T21:17:09.620Z,25.57
2019-05-20T21:19:43.063Z,23.07
2019-05-20T21:22:16.482Z,23.97
2019-05-20T21:24:49.920Z,26.73
2019-05-20T21:27:23.343Z,28.10
2019-05-20T21:29:56.775Z,29.07
2019-05-20T21:32:30.214Z,26.67
2019-05-20T21:35:03.728Z,27.23
2019-05-20T21:37:37.148Z,30.63
2019-05-20T21:40:10.944Z,30.17
2019-05-20T21:42:44.373Z,31.73
2019-05-20T21:45:17.802Z,29.57
2019-05-20T21:47:51.220Z,31.33
2019-05-20T21:50:24.664Z,32.70
2019-05-20T21:52:58.089Z,33.63
2019-05-20T21:55:31.884Z,31.17
2019-05-20T21:58:05.383Z,35.43
2019-05-20T22:00:41.022Z,37.93
2019-05-20T22:03:23.944Z,34.80
2019-05-20T22:05:49.736Z,34.83
2019-05-20T22:08:23.156Z,31.93
2019-05-20T22:10:56.643Z,34.53
2019-05-20T22:13:30.108Z,34.00
2019-05-20T22:16:05.225Z,36.43
2019-05-20T22:18:38.647Z,32.57
2019-05-20T22:21:13.715Z,37.93
2019-05-20T22:23:51.729Z,28.00
2019-05-20T22:26:25.156Z,31.93
2019-05-20T22:28:58.788Z,32.60
2019-05-20T22:31:32.224Z,33.90
2019-05-20T22:34:05.655Z,31.20
2019-05-20T22:36:39.082Z,30.40
2019-05-20T22:39:12.604Z,30.93
2019-05-20T22:41:46.324Z,29.57
2019-05-20T22:44:19.956Z,29.80
2019-05-20T22:46:53.552Z,32.40
2019-05-20T22:49:26.980Z,29.27
2019-05-20T22:52:00.432Z,32.10
2019-05-20T22:54:33.836Z,28.37
2019-05-20T22:57:07.301Z,29.33
2019-05-20T22:59:40.788Z,27.67
2019-05-20T23:02:14.291Z,26.27
2019-05-20T23:04:47.732Z,24.63
2019-05-20T23:07:21.175Z,24.73
2019-05-20T23:09:54.595Z,24.27
2019-05-20T23:12:28.039Z,22.00
2019-05-20T23:15:01.722Z,23.97
2019-05-20T23:17:35.455Z,25.53
2019-05-20T23:20:09.579Z,23.63
2019-05-20T23:22:43.016Z,21.63
2019-05-20T23:25:16.440Z,24.47
2019-05-20T23:27:49.873Z,25.70
2019-05-20T23:30:23.466Z,23.13
2019-05-20T23:32:56.928Z,23.27
2019-05-20T23:35:30.424Z,24.40
2019-05-20T23:38:03.860Z,26.23
2019-05-20T23:40:37.855Z,23.93
2019-05-20T23:43:11.292Z,23.60
2019-05-20T23:45:44.717Z,26.37
2019-05-20T23:48:18.155Z,24.20
2019-05-20T23:50:51.576Z,25.80
2019-05-20T23:53:25.007Z,25.33
2019-05-20T23:55:58.521Z,27.20
2019-05-20T23:58:31.940Z,28.60
